Time;durP1;ratioP1;P1;durP2;ratioP2;P2;SDS_P1;SDS_P2;PMS_P1;PMS_P2;Temp;Humidity;BMP_temperature;BMP_pressure;BME280_temperature;BME280_humidity;BME280_pressure;Samples;Min_cycle;Max_cycle;Signal;HPM_P1;HPM_P2
2023/03/15 00:01:13;;;;;;;5.15;2.60;;;10.80;93.10;;;;;;5075177;28;20100;-72
2023/03/15 00:03:39;;;;;;;5.20;2.50;;;10.90;92.90;;;;;;5056948;28;20028;-73
2023/03/15 00:06:05;;;;;;;3.70;2.33;;;10.80;92.70;;;;;;5074953;28;20074;-71
2023/03/15 00:08:34;;;;;;;5.85;3.10;;;10.70;93.00;;;;;;5074953;28;20032;-71
2023/03/15 00:11:00;;;;;;;5.68;3.78;;;10.70;93.20;;;;;;5074920;28;20036;-72
2023/03/15 00:13:26;;;;;;;4.60;3.47;;;10.70;93.30;;;;;;5074630;28;20028;-72
2023/03/15 00:15:56;;;;;;;4.60;2.75;;;10.60;93.20;;;;;;5057065;28;20359;-72
2023/03/15 00:18:21;;;;;;;3.63;2.50;;;10.70;93.20;;;;;;5074715;28;20023;-73
2023/03/15 00:20:47;;;;;;;4.90;3.42;;;10.70;93.50;;;;;;5074838;28;20448;-72
2023/03/15 00:23:14;;;;;;;6.72;3.88;;;10.60;93.70;;;;;;5074465;28;20033;-73
2023/03/15 00:25:44;;;;;;;5.88;4.28;;;10.60;93.70;;;;;;5074812;28;20017;-73
2023/03/15 00:28:09;;;;;;;4.35;3.58;;;10.60;93.50;;;;;;5074382;28;20024;-72
2023/03/15 00:30:35;;;;;;;5.07;3.70;;;10.70;93.20;;;;;;5074554;28;20105;-72
2023/03/15 00:33:00;;;;;;;6.10;4.25;;;10.70;93.30;;;;;;5074518;28;20465;-73
2023/03/15 00:35:26;;;;;;;5.78;3.55;;;10.60;93.50;;;;;;5074509;28;20035;-73
2023/03/15 00:37:54;;;;;;;6.75;4.47;;;10.70;93.20;;;;;;5074694;28;20031;-73
2023/03/15 00:40:20;;;;;;;5.68;4.07;;;10.70;93.10;;;;;;5074202;28;20074;-72
2023/03/15 00:42:49;;;;;;;5.78;4.22;;;10.70;93.20;;;;;;5074105;28;20535;-73
2023/03/15 00:45:16;;;;;;;5.20;4.70;;;10.70;93.30;;;;;;5074311;28;20021;-72
2023/03/15 00:47:42;;;;;;;6.47;4.90;;;10.70;93.40;;;;;;5074491;28;20027;-73
2023/03/15 00:50:08;;;;;;;6.57;4.45;;;10.70;93.30;;;;;;5056056;28;20385;-73
2023/03/15 00:52:37;;;;;;;6.70;4.90;;;10.70;93.20;;;;;;5073906;28;20045;-72
2023/03/15 00:55:04;;;;;;;6.30;4.75;;;10.70;93.70;;;;;;5074244;28;20453;-72
2023/03/15 00:57:33;;;;;;;6.82;6.13;;;10.60;93.60;;;;;;5073818;28;20029;-73
2023/03/15 00:59:58;;;;;;;7.60;6.90;;;10.70;93.70;;;;;;5074157;28;20024;-73
2023/03/15 01:02:24;;;;;;;8.23;7.03;;;10.60;93.50;;;;;;5073991;28;20103;-73
2023/03/15 01:04:50;;;;;;;6.93;6.10;;;10.60;93.20;;;;;;5073671;28;20055;-72
2023/03/15 01:07:16;;;;;;;8.43;6.40;;;10.60;93.30;;;;;;5073921;28;20488;-73
2023/03/15 01:09:43;;;;;;;7.97;6.47;;;10.60;93.30;;;;;;5073870;28;20083;-72
2023/03/15 01:12:08;;;;;;;8.55;7.60;;;10.60;93.70;;;;;;5073557;28;20120;-73
2023/03/15 01:14:36;;;;;;;8.40;7.18;;;10.60;93.80;;;;;;5073516;28;20466;-72
2023/03/15 01:17:02;;;;;;;9.75;7.07;;;10.60;93.60;;;;;;5073779;28;20104;-73
2023/03/15 01:19:27;;;;;;;7.47;5.70;;;10.60;93.40;;;;;;5073576;28;20029;-72
2023/03/15 01:21:53;;;;;;;8.35;6.43;;;10.50;93.40;;;;;;5073542;28;20036;-72
2023/03/15 01:24:18;;;;;;;10.18;7.15;;;10.50;93.60;;;;;;5055973;28;20051;-72
2023/03/15 01:26:44;;;;;;;7.50;5.93;;;10.50;93.60;;;;;;5073489;28;20024;-72
2023/03/15 01:29:11;;;;;;;8.88;6.40;;;10.60;93.50;;;;;;5073273;28;20024;-73
2023/03/15 01:31:37;;;;;;;7.80;5.78;;;10.50;93.50;;;;;;5073358;28;20469;-73
2023/03/15 01:34:02;;;;;;;8.75;6.13;;;10.50;93.80;;;;;;5073295;28;20019;-73
2023/03/15 01:36:28;;;;;;;10.50;6.15;;;10.50;93.70;;;;;;5072438;28;20461;-73
2023/03/15 01:38:53;;;;;;;8.55;6.65;;;10.40;93.90;;;;;;5055474;28;20047;-73
2023/03/15 01:41:20;;;;;;;10.65;6.47;;;10.40;93.60;;;;;;5073250;28;20138;-73
2023/03/15 01:43:46;;;;;;;9.02;6.18;;;10.50;93.60;;;;;;5073113;28;20044;-72
2023/03/15 01:46:23;;;;;;;8.52;6.07;;;10.40;93.50;;;;;;5072964;28;20444;-72
2023/03/15 01:48:58;;;;;;;8.25;6.05;;;10.50;93.60;;;;;;5073404;28;20469;-73
2023/03/15 01:51:38;;;;;;;8.45;5.68;;;10.40;93.70;;;;;;5072585;28;20033;-72
2023/03/15 01:54:07;;;;;;;7.13;5.93;;;10.50;93.80;;;;;;5072687;28;20489;-72
2023/03/15 01:56:35;;;;;;;8.93;5.60;;;10.40;93.80;;;;;;5072862;28;20107;-73
2023/03/15 01:59:03;;;;;;;7.13;4.82;;;10.40;93.90;;;;;;5073009;28;20024;-73
2023/03/15 02:01:30;;;;;;;6.43;4.88;;;10.40;94.00;;;;;;5072871;28;20458;-73
2023/03/15 02:04:05;;;;;;;6.93;5.03;;;10.40;93.90;;;;;;5073031;28;20031;-72
2023/03/15 02:06:33;;;;;;;9.40;5.35;;;10.40;94.10;;;;;;5072608;28;20025;-73
2023/03/15 02:09:03;;;;;;;7.47;4.93;;;10.40;94.20;;;;;;5072646;28;20020;-73
2023/03/15 02:11:29;;;;;;;7.88;5.03;;;10.30;94.00;;;;;;5072698;28;20107;-73
2023/03/15 02:13:56;;;;;;;5.05;3.85;;;10.30;94.00;;;;;;5072690;28;20448;-73
2023/03/15 02:16:23;;;;;;;9.13;5.38;;;10.30;94.10;;;;;;5072767;28;20032;-73
2023/03/15 02:18:49;;;;;;;5.75;4.20;;;10.30;94.00;;;;;;5072771;28;20017;-73
2023/03/15 02:21:51;;;;;;;6.93;4.43;;;10.20;94.00;;;;;;5072498;28;20385;-73
2023/03/15 02:24:31;;;;;;;6.18;4.50;;;10.30;94.10;;;;;;5072413;28;20024;-72
2023/03/15 02:26:57;;;;;;;8.88;4.57;;;10.30;94.10;;;;;;5072536;28;20473;-74
2023/03/15 02:29:25;;;;;;;6.13;4.43;;;10.20;94.30;;;;;;5072601;28;20249;-73
2023/03/15 02:31:52;;;;;;;6.97;3.83;;;10.20;94.40;;;;;;5072370;28;20036;-73
2023/03/15 02:34:17;;;;;;;7.47;4.22;;;10.20;94.60;;;;;;5072519;28;20115;-73
2023/03/15 02:36:43;;;;;;;4.97;4.20;;;10.20;94.50;;;;;;5072339;28;20100;-73
2023/03/15 02:39:20;;;;;;;6.07;3.78;;;10.30;94.30;;;;;;5072298;28;20523;-73
2023/03/15 02:41:53;;;;;;;6.63;4.05;;;10.30;94.30;;;;;;5072440;28;20086;-73
2023/03/15 02:44:34;;;;;;;6.03;4.13;;;10.30;94.40;;;;;;5072478;28;20012;-73
2023/03/15 02:47:28;;;;;;;6.15;3.80;;;10.30;94.40;;;;;;5074014;28;20090;-73
2023/03/15 02:49:54;;;;;;;7.03;3.90;;;10.30;94.40;;;;;;5048797;28;20036;-73
2023/03/15 02:52:21;;;;;;;8.57;4.43;;;10.20;94.50;;;;;;5057907;28;20558;-73
2023/03/15 02:54:47;;;;;;;6.25;4.38;;;10.20;94.40;;;;;;5076696;28;20036;-73
2023/03/15 02:57:15;;;;;;;5.95;4.22;;;10.20;94.60;;;;;;5076324;28;20477;-73
2023/03/15 02:59:43;;;;;;;6.05;4.30;;;10.20;94.60;;;;;;5076454;28;20583;-73
2023/03/15 03:02:13;;;;;;;9.57;4.38;;;10.20;94.70;;;;;;5076242;28;20024;-73
2023/03/15 03:04:40;;;;;;;5.38;4.20;;;10.30;94.50;;;;;;5076194;28;20055;-73
2023/03/15 03:07:06;;;;;;;5.15;4.65;;;10.20;94.50;;;;;;5057819;28;20032;-73
2023/03/15 03:09:32;;;;;;;5.30;3.55;;;10.30;94.50;;;;;;5076175;28;20024;-72
2023/03/15 03:11:57;;;;;;;5.70;3.92;;;10.20;94.50;;;;;;5075998;28;20040;-73
2023/03/15 03:14:23;;;;;;;5.85;4.13;;;10.20;94.70;;;;;;5076134;28;20170;-73
2023/03/15 03:16:50;;;;;;;4.88;4.15;;;10.10;94.60;;;;;;5076035;28;20480;-73
2023/03/15 03:19:16;;;;;;;7.20;4.57;;;10.20;94.80;;;;;;5076207;28;20021;-73
2023/03/15 03:21:42;;;;;;;6.25;4.35;;;10.20;94.70;;;;;;5075585;28;20098;-72
2023/03/15 03:24:08;;;;;;;7.95;4.65;;;10.20;94.60;;;;;;5075673;28;20481;-72
2023/03/15 03:26:34;;;;;;;8.80;4.47;;;10.10;94.60;;;;;;5075824;28;20085;-73
2023/03/15 03:28:59;;;;;;;7.30;4.88;;;10.20;94.60;;;;;;5075850;28;20024;-73
2023/03/15 03:31:27;;;;;;;6.95;4.57;;;10.10;94.60;;;;;;5075753;28;20033;-73
2023/03/15 03:33:54;;;;;;;7.55;4.55;;;10.10;94.70;;;;;;5075650;28;20412;-72
2023/03/15 03:36:20;;;;;;;9.27;4.90;;;10.10;94.70;;;;;;5075467;28;20048;-74
2023/03/15 03:38:46;;;;;;;9.77;4.22;;;10.00;94.70;;;;;;5074258;28;20451;-73
2023/03/15 03:41:13;;;;;;;8.40;4.20;;;10.10;94.60;;;;;;5075373;28;20025;-73
2023/03/15 03:43:39;;;;;;;7.95;4.40;;;10.10;94.80;;;;;;5074591;28;20066;-72
2023/03/15 03:46:05;;;;;;;6.82;4.10;;;10.10;94.60;;;;;;5075495;28;20024;-72
2023/03/15 03:48:31;;;;;;;6.78;4.20;;;10.10;94.60;;;;;;5075385;28;20036;-73
2023/03/15 03:50:57;;;;;;;5.07;3.90;;;10.10;94.50;;;;;;5075151;28;20025;-73
2023/03/15 03:53:23;;;;;;;4.30;3.50;;;10.10;94.40;;;;;;5074986;28;20040;-72
2023/03/15 03:55:49;;;;;;;6.85;3.33;;;10.10;94.50;;;;;;5075278;28;20028;-73
2023/03/15 03:58:15;;;;;;;6.50;3.67;;;10.00;94.30;;;;;;5074406;28;20024;-73
2023/03/15 04:00:41;;;;;;;5.88;3.65;;;10.10;94.10;;;;;;5075341;28;20025;-73
2023/03/15 04:03:07;;;;;;;4.53;3.05;;;10.00;94.10;;;;;;5075130;28;20441;-73
2023/03/15 04:05:33;;;;;;;5.30;3.30;;;10.00;94.00;;;;;;5074751;28;20107;-73
2023/03/15 04:07:59;;;;;;;3.25;2.83;;;10.00;94.00;;;;;;5074826;28;20154;-72
2023/03/15 04:10:25;;;;;;;6.63;3.10;;;10.00;94.10;;;;;;5075081;28;20107;-73
2023/03/15 04:12:55;;;;;;;4.72;2.72;;;10.00;94.10;;;;;;5074854;28;20029;-73
2023/03/15 04:15:22;;;;;;;3.33;2.47;;;10.00;94.10;;;;;;5075094;28;20058;-73
2023/03/15 04:17:48;;;;;;;4.72;2.58;;;9.90;94.10;;;;;;5074735;28;20024;-73
2023/03/15 04:20:16;;;;;;;3.83;2.55;;;9.90;93.90;;;;;;5074723;28;20020;-72
2023/03/15 04:22:48;;;;;;;3.00;2.33;;;9.90;94.00;;;;;;5074653;28;20032;-72
2023/03/15 04:25:14;;;;;;;3.80;2.15;;;9.90;94.00;;;;;;5074968;28;20086;-72
2023/03/15 04:27:40;;;;;;;3.78;2.05;;;9.90;93.90;;;;;;5074796;28;20021;-72
2023/03/15 04:30:07;;;;;;;4.90;2.00;;;9.80;93.80;;;;;;5074648;28;20074;-72
2023/03/15 04:32:32;;;;;;;4.13;2.45;;;9.80;93.70;;;;;;5074354;28;20078;-72
2023/03/15 04:34:58;;;;;;;2.60;1.67;;;9.80;93.90;;;;;;5074260;28;20024;-72
2023/03/15 04:37:23;;;;;;;3.17;1.73;;;9.80;93.70;;;;;;5074469;28;20036;-71
2023/03/15 04:39:51;;;;;;;4.25;1.73;;;9.80;93.60;;;;;;5074390;28;20031;-72
2023/03/15 04:42:16;;;;;;;2.80;1.73;;;9.80;93.60;;;;;;5074568;28;20075;-72
2023/03/15 04:44:42;;;;;;;3.72;1.77;;;9.70;93.60;;;;;;5074286;28;20037;-72
2023/03/15 04:47:08;;;;;;;4.68;1.73;;;9.70;93.70;;;;;;5074473;28;20032;-71
2023/03/15 04:49:33;;;;;;;3.25;1.80;;;9.70;93.70;;;;;;5073908;28;20493;-71
2023/03/15 04:51:59;;;;;;;3.15;1.88;;;9.70;93.70;;;;;;5074033;28;20048;-71
2023/03/15 04:54:25;;;;;;;3.72;1.70;;;9.70;93.70;;;;;;5074032;28;20048;-71
2023/03/15 04:56:51;;;;;;;5.72;2.03;;;9.60;93.70;;;;;;5074047;28;20032;-72
2023/03/15 04:59:16;;;;;;;5.47;2.08;;;9.60;93.70;;;;;;5074020;28;20457;-72
2023/03/15 05:01:42;;;;;;;3.47;1.75;;;9.80;92.90;;;;;;5074021;28;20023;-72
2023/03/15 05:04:07;;;;;;;4.93;1.75;;;9.70;92.60;;;;;;5073948;28;20016;-73
2023/03/15 05:06:33;;;;;;;5.10;2.17;;;9.60;92.70;;;;;;5056212;28;20508;-72
2023/03/15 05:08:58;;;;;;;8.35;2.65;;;9.50;92.90;;;;;;5073606;28;20028;-73
2023/03/15 05:11:24;;;;;;;4.50;2.08;;;9.40;93.20;;;;;;5072843;28;20032;-73
2023/03/15 05:13:50;;;;;;;5.47;2.78;;;9.30;93.60;;;;;;5073488;28;20029;-72
2023/03/15 05:16:15;;;;;;;6.30;2.88;;;9.20;93.90;;;;;;5073805;28;20036;-72
2023/03/15 05:18:41;;;;;;;6.05;3.17;;;9.20;94.10;;;;;;5073517;28;20032;-73
2023/03/15 05:21:06;;;;;;;7.38;3.30;;;9.20;94.20;;;;;;5073549;28;20108;-72
2023/03/15 05:23:32;;;;;;;7.55;3.53;;;9.10;94.40;;;;;;5073395;28;20488;-72
2023/03/15 05:25:59;;;;;;;5.45;2.75;;;9.10;94.20;;;;;;5073273;28;20028;-72
2023/03/15 05:28:25;;;;;;;4.95;2.72;;;9.10;94.10;;;;;;5074010;28;20032;-72
2023/03/15 05:30:51;;;;;;;3.58;1.80;;;9.10;94.30;;;;;;5073348;28;20493;-72
2023/03/15 05:33:17;;;;;;;6.97;2.28;;;9.10;93.70;;;;;;5072882;28;20063;-73
2023/03/15 05:35:43;;;;;;;4.93;1.92;;;9.00;93.80;;;;;;5073223;28;20364;-73
2023/03/15 05:38:13;;;;;;;3.83;1.95;;;8.90;94.30;;;;;;5073403;28;20024;-73
2023/03/15 05:40:40;;;;;;;3.85;2.00;;;8.90;94.10;;;;;;5073449;28;20017;-72
2023/03/15 05:43:06;;;;;;;3.45;2.28;;;8.90;94.80;;;;;;5073147;28;20020;-73
2023/03/15 05:45:32;;;;;;;2.80;2.30;;;8.90;94.70;;;;;;5073138;28;20036;-73
2023/03/15 05:47:57;;;;;;;2.33;1.60;;;8.80;94.80;;;;;;5072759;28;20029;-73
2023/03/15 05:50:23;;;;;;;3.70;1.70;;;8.80;94.30;;;;;;5073041;28;20107;-73
2023/03/15 05:52:50;;;;;;;3.28;1.80;;;8.80;94.50;;;;;;5072660;28;20068;-73
2023/03/15 05:55:16;;;;;;;3.47;2.00;;;8.80;94.90;;;;;;5072767;28;20017;-73
2023/03/15 05:57:42;;;;;;;3.35;2.17;;;8.70;95.00;;;;;;5072915;28;20120;-73
2023/03/15 06:00:09;;;;;;;4.32;1.95;;;8.70;94.50;;;;;;5062162;28;20032;-73
2023/03/15 06:02:34;;;;;;;3.80;1.80;;;8.70;94.90;;;;;;5071341;28;20025;-73
2023/03/15 06:05:00;;;;;;;3.47;2.03;;;8.70;94.70;;;;;;5071050;28;20080;-73
2023/03/15 06:07:26;;;;;;;3.40;1.77;;;8.60;94.70;;;;;;5063950;28;20028;-73
2023/03/15 06:09:52;;;;;;;6.68;2.05;;;8.70;94.50;;;;;;5072882;28;20489;-73
2023/03/15 06:12:18;;;;;;;3.45;2.03;;;8.60;94.40;;;;;;5072782;28;20048;-73
2023/03/15 06:14:44;;;;;;;2.88;2.35;;;8.50;94.40;;;;;;5072626;28;20021;-73
2023/03/15 06:17:10;;;;;;;3.30;2.10;;;8.50;94.30;;;;;;5057960;28;20474;-73
2023/03/15 06:19:35;;;;;;;8.18;2.55;;;8.40;94.60;;;;;;5054764;28;20060;-73
2023/03/15 06:22:02;;;;;;;5.30;3.85;;;8.40;94.70;;;;;;5060738;28;20021;-73
2023/03/15 06:24:28;;;;;;;3.55;2.72;;;8.40;94.80;;;;;;5065825;28;20027;-73
2023/03/15 06:26:53;;;;;;;4.40;2.50;;;8.30;95.00;;;;;;5059256;28;20025;-73
2023/03/15 06:29:20;;;;;;;4.90;3.40;;;8.10;95.30;;;;;;5037967;28;20552;-73
2023/03/15 06:31:51;;;;;;;6.10;3.35;;;8.00;95.70;;;;;;5055827;28;20132;-72
2023/03/15 06:34:18;;;;;;;4.43;3.00;;;8.00;96.20;;;;;;5055647;28;20032;-71
2023/03/15 06:36:44;;;;;;;5.20;3.20;;;8.30;95.80;;;;;;5039056;28;20051;-71
2023/03/15 06:39:11;;;;;;;7.97;4.30;;;8.40;95.40;;;;;;5060920;28;20028;-72
2023/03/15 06:41:37;;;;;;;6.70;3.92;;;8.60;95.30;;;;;;5061956;28;20076;-71
2023/03/15 06:44:02;;;;;;;4.82;3.97;;;8.70;95.40;;;;;;5060081;28;20051;-71
2023/03/15 06:46:28;;;;;;;4.82;3.65;;;8.80;95.40;;;;;;5036908;28;20040;-71
2023/03/15 06:48:53;;;;;;;6.15;4.43;;;8.80;95.30;;;;;;5065216;28;20105;-70
2023/03/15 06:51:19;;;;;;;6.88;4.13;;;8.90;95.50;;;;;;5056957;28;20109;-70
2023/03/15 06:53:45;;;;;;;6.55;4.30;;;8.90;95.40;;;;;;5061483;28;20029;-70
2023/03/15 06:56:10;;;;;;;9.30;5.82;;;9.00;95.30;;;;;;5060257;28;20440;-70
2023/03/15 06:58:36;;;;;;;6.72;5.10;;;9.00;95.20;;;;;;5058581;28;20438;-70
2023/03/15 07:01:02;;;;;;;7.95;5.07;;;9.00;95.20;;;;;;5059784;28;20032;-72
2023/03/15 07:03:28;;;;;;;8.00;6.10;;;9.00;95.90;;;;;;5069545;28;20029;-70
2023/03/15 07:05:53;;;;;;;8.60;5.28;;;9.00;95.80;;;;;;5074626;28;20029;-71
2023/03/15 07:08:23;;;;;;;10.27;6.15;;;9.10;95.90;;;;;;5065668;28;20064;-75
2023/03/15 07:10:50;;;;;;;8.75;6.10;;;9.10;95.70;;;;;;5050898;28;20021;-73
2023/03/15 07:13:18;;;;;;;7.78;5.20;;;9.20;95.90;;;;;;5065552;28;20487;-72
2023/03/15 07:15:43;;;;;;;7.72;4.80;;;9.20;96.10;;;;;;5061715;28;20021;-70
2023/03/15 07:18:09;;;;;;;8.23;5.78;;;9.30;96.30;;;;;;5041829;28;20461;-73
2023/03/15 07:20:35;;;;;;;8.63;5.35;;;9.30;96.10;;;;;;5059733;28;20436;-71
2023/03/15 07:23:00;;;;;;;9.68;5.25;;;9.40;96.10;;;;;;5062741;28;20072;-72
2023/03/15 07:25:26;;;;;;;11.27;5.43;;;9.40;95.80;;;;;;5064706;28;20032;-73
2023/03/15 07:27:52;;;;;;;6.60;4.72;;;9.50;95.40;;;;;;5071754;28;20028;-71
2023/03/15 07:30:19;;;;;;;7.28;5.43;;;9.50;95.40;;;;;;5052359;28;20021;-73
2023/03/15 07:32:45;;;;;;;5.90;5.30;;;9.60;95.20;;;;;;5061334;28;20020;-73
2023/03/15 07:35:12;;;;;;;6.63;4.95;;;9.60;95.10;;;;;;5061132;28;20127;-72
2023/03/15 07:37:38;;;;;;;7.15;5.18;;;9.60;95.40;;;;;;5056116;28;20079;-71
2023/03/15 07:40:08;;;;;;;9.40;5.45;;;9.70;95.70;;;;;;5073406;28;20466;-73
2023/03/15 07:42:38;;;;;;;9.75;5.80;;;9.70;95.70;;;;;;5055099;28;20049;-74
2023/03/15 07:45:08;;;;;;;7.18;5.00;;;9.80;95.80;;;;;;5055353;28;20031;-73
2023/03/15 07:47:34;;;;;;;14.45;5.60;;;9.80;95.60;;;;;;5067405;28;20055;-74
2023/03/15 07:49:59;;;;;;;6.47;4.80;;;9.90;95.60;;;;;;5067365;28;20031;-73
2023/03/15 07:52:25;;;;;;;9.00;5.15;;;9.90;95.50;;;;;;5069334;28;20067;-71
2023/03/15 07:54:50;;;;;;;8.38;5.18;;;10.00;95.50;;;;;;5054787;28;20090;-75
2023/03/15 07:57:16;;;;;;;8.98;5.47;;;10.00;95.40;;;;;;5058905;28;20052;-75
2023/03/15 07:59:42;;;;;;;8.98;5.15;;;10.00;95.30;;;;;;5070863;28;20025;-74
2023/03/15 08:02:11;;;;;;;8.55;5.43;;;10.10;95.20;;;;;;5074934;28;20440;-75
2023/03/15 08:04:37;;;;;;;7.50;5.00;;;10.10;95.30;;;;;;5074936;28;20029;-76
2023/03/15 08:07:02;;;;;;;6.97;5.60;;;10.10;95.60;;;;;;5074121;28;20537;-75
2023/03/15 08:09:28;;;;;;;10.68;5.22;;;10.20;95.50;;;;;;5074632;28;20027;-72
2023/03/15 08:11:53;;;;;;;8.40;4.30;;;10.20;95.50;;;;;;5074772;28;20520;-74
2023/03/15 08:14:19;;;;;;;7.22;4.20;;;10.30;95.60;;;;;;5064815;28;20478;-76
2023/03/15 08:16:44;;;;;;;7.05;5.07;;;10.30;95.90;;;;;;5079498;28;20028;-74
2023/03/15 08:19:10;;;;;;;8.73;5.88;;;10.40;95.40;;;;;;5062036;28;20025;-73
2023/03/15 08:21:36;;;;;;;8.10;5.70;;;10.40;95.10;;;;;;5074815;28;20036;-74
2023/03/15 08:24:01;;;;;;;9.63;4.82;;;10.50;94.80;;;;;;5074318;28;20029;-73
2023/03/15 08:26:27;;;;;;;10.65;5.07;;;10.50;94.90;;;;;;5055484;28;20493;-73
2023/03/15 08:28:52;;;;;;;8.07;4.68;;;10.50;94.90;;;;;;5069662;28;20025;-74
2023/03/15 08:31:18;;;;;;;6.45;4.05;;;10.50;94.90;;;;;;5058080;28;20028;-73
2023/03/15 08:33:44;;;;;;;6.53;3.50;;;10.60;94.50;;;;;;5073987;28;20111;-74
2023/03/15 08:36:09;;;;;;;7.82;4.60;;;10.60;94.10;;;;;;5060968;28;20029;-74
2023/03/15 08:38:35;;;;;;;6.28;4.25;;;10.60;94.30;;;;;;5074410;28;20046;-71
2023/03/15 08:41:02;;;;;;;5.90;4.03;;;10.70;94.60;;;;;;5073876;28;20016;-74
2023/03/15 08:43:28;;;;;;;7.80;4.15;;;10.70;94.80;;;;;;5074227;28;20020;-71
2023/03/15 08:45:53;;;;;;;6.00;4.38;;;10.70;94.60;;;;;;5070113;28;20048;-71
2023/03/15 08:48:19;;;;;;;8.45;4.18;;;10.80;94.80;;;;;;5054582;28;20018;-71
2023/03/15 08:50:45;;;;;;;6.95;3.63;;;10.80;94.50;;;;;;5073923;28;20036;-72
2023/03/15 08:53:10;;;;;;;4.88;3.53;;;10.80;94.30;;;;;;5073872;28;20119;-71
2023/03/15 08:55:36;;;;;;;4.28;2.65;;;10.80;94.00;;;;;;5058508;28;20837;-74
2023/03/15 08:58:03;;;;;;;6.22;2.45;;;10.90;93.00;;;;;;5054151;28;20389;-74
2023/03/15 09:00:29;;;;;;;3.55;1.40;;;10.90;92.90;;;;;;5053755;28;20059;-74
2023/03/15 09:02:55;;;;;;;3.85;1.50;;;10.90;92.40;;;;;;5071248;28;20032;-72
2023/03/15 09:05:23;;;;;;;4.10;1.52;;;10.90;92.40;;;;;;5069629;28;20021;-74
2023/03/15 09:07:49;;;;;;;1.05;0.85;;;10.90;92.40;;;;;;5076487;28;20426;-70
2023/03/15 09:10:16;;;;;;;2.50;1.00;;;10.90;91.60;;;;;;5057213;28;20114;-72
2023/03/15 09:12:47;;;;;;;3.22;1.02;;;10.80;91.60;;;;;;5056310;28;20063;-71
2023/03/15 09:15:13;;;;;;;2.90;1.17;;;10.80;91.70;;;;;;5054881;28;20020;-73
2023/03/15 09:17:39;;;;;;;2.20;1.27;;;10.70;91.70;;;;;;5069186;28;20029;-74
2023/03/15 09:20:13;;;;;;;2.80;1.48;;;10.80;91.90;;;;;;5065399;28;20024;-71
2023/03/15 09:22:42;;;;;;;2.50;1.40;;;10.80;91.80;;;;;;5071105;28;20028;-72
2023/03/15 09:25:08;;;;;;;2.63;1.40;;;10.80;91.80;;;;;;5071675;28;20350;-71
2023/03/15 09:27:35;;;;;;;1.77;1.08;;;10.70;91.70;;;;;;5060550;28;20036;-74
2023/03/15 09:30:00;;;;;;;4.15;1.45;;;10.80;91.60;;;;;;5070568;28;20024;-73
2023/03/15 09:32:27;;;;;;;2.58;1.45;;;10.80;91.50;;;;;;5058063;28;20406;-74
2023/03/15 09:34:53;;;;;;;3.40;1.70;;;10.80;91.90;;;;;;5072980;28;20473;-73
2023/03/15 09:37:20;;;;;;;4.32;1.48;;;10.80;91.80;;;;;;5056872;28;20099;-72
2023/03/15 09:39:46;;;;;;;4.18;1.80;;;10.80;91.60;;;;;;5062472;28;20025;-72
2023/03/15 09:42:28;;;;;;;5.43;2.10;;;10.80;91.80;;;;;;5071602;28;20557;-72
2023/03/15 09:45:08;;;;;;;3.72;1.70;;;10.90;91.90;;;;;;5059773;28;20028;-72
2023/03/15 09:48:04;;;;;;;6.72;2.80;;;10.80;92.20;;;;;;5072032;28;20038;-73
2023/03/15 09:50:51;;;;;;;6.15;2.17;;;10.90;92.20;;;;;;5081795;28;20047;-73
2023/03/15 09:53:27;;;;;;;4.20;1.83;;;10.80;91.90;;;;;;5092840;28;20035;-72
2023/03/15 09:55:53;;;;;;;6.95;2.17;;;10.80;92.20;;;;;;5080507;28;20025;-72
2023/03/15 09:58:25;;;;;;;5.40;1.88;;;10.70;91.70;;;;;;5053006;28;20044;-72
2023/03/15 10:00:58;;;;;;;4.18;2.13;;;10.80;92.00;;;;;;5053445;28;20025;-72
2023/03/15 10:03:45;;;;;;;4.72;2.17;;;10.80;91.80;;;;;;5052803;28;20389;-73
2023/03/15 10:06:44;;;;;;;4.57;1.80;;;10.90;91.00;;;;;;5052600;28;20036;-73
2023/03/15 10:09:15;;;;;;;3.40;1.52;;;10.90;90.80;;;;;;5068922;28;20027;-75
2023/03/15 10:12:19;;;;;;;4.45;1.95;;;10.80;91.10;;;;;;5061171;28;20127;-72
2023/03/15 10:15:03;;;;;;;6.50;2.40;;;10.80;90.40;;;;;;5053060;28;20103;-72
2023/03/15 10:17:39;;;;;;;5.50;2.33;;;10.90;89.20;;;;;;5055766;28;20430;-72
2023/03/15 10:20:34;;;;;;;5.90;1.92;;;10.90;89.70;;;;;;5072786;28;20024;-73
2023/03/15 10:23:18;;;;;;;4.93;1.73;;;10.90;90.20;;;;;;5063765;28;20036;-73
2023/03/15 10:25:45;;;;;;;4.70;1.67;;;11.00;90.40;;;;;;5052110;28;20083;-73
2023/03/15 10:28:26;;;;;;;6.68;1.92;;;11.00;89.40;;;;;;5053063;28;20111;-73
2023/03/15 10:30:52;;;;;;;6.90;1.80;;;11.00;90.80;;;;;;5060594;28;20115;-72
2023/03/15 10:33:37;;;;;;;3.28;1.73;;;10.90;91.30;;;;;;5063019;28;20647;-72
2023/03/15 10:36:15;;;;;;;3.25;1.63;;;11.00;91.60;;;;;;5086798;28;20106;-73
2023/03/15 10:38:41;;;;;;;2.63;1.52;;;11.00;90.20;;;;;;5076813;28;20036;-72
2023/03/15 10:41:07;;;;;;;3.33;1.92;;;11.10;88.70;;;;;;5077685;28;20380;-72
2023/03/15 10:43:36;;;;;;;3.72;1.58;;;11.10;89.30;;;;;;5081950;28;20111;-72
2023/03/15 10:46:04;;;;;;;2.90;1.40;;;11.10;89.30;;;;;;5066711;28;20035;-72
2023/03/15 10:48:36;;;;;;;3.05;1.52;;;11.10;88.90;;;;;;5083174;28;20028;-72
2023/03/15 10:51:27;;;;;;;3.00;1.75;;;11.20;88.00;;;;;;5064772;28;20439;-73
2023/03/15 10:53:57;;;;;;;3.95;1.80;;;11.20;86.60;;;;;;5048475;28;20475;-72
2023/03/15 10:56:25;;;;;;;4.28;1.90;;;11.30;85.30;;;;;;5065350;28;20026;-72
2023/03/15 10:58:54;;;;;;;3.58;2.22;;;11.30;86.60;;;;;;5067255;28;20031;-72
2023/03/15 11:01:34;;;;;;;8.23;1.98;;;11.30;85.60;;;;;;5058982;28;20498;-72
2023/03/15 11:04:14;;;;;;;4.55;2.47;;;11.30;87.30;;;;;;5063137;28;20025;-72
2023/03/15 11:07:12;;;;;;;5.47;1.95;;;11.20;89.20;;;;;;5065323;28;20086;-71
2023/03/15 11:09:42;;;;;;;3.28;1.65;;;11.20;89.20;;;;;;5085680;28;20036;-71
2023/03/15 11:12:09;;;;;;;4.10;2.10;;;11.30;90.80;;;;;;5075230;28;20503;-73
2023/03/15 11:15:09;;;;;;;5.43;1.98;;;11.30;90.10;;;;;;5054516;28;20100;-71
2023/03/15 11:17:42;;;;;;;6.65;2.90;;;11.30;89.10;;;;;;5051809;28;20036;-72
2023/03/15 11:20:36;;;;;;;9.15;2.45;;;11.30;89.20;;;;;;5060003;28;20485;-71
2023/03/15 11:23:14;;;;;;;4.15;2.00;;;11.40;89.70;;;;;;5064779;28;20066;-72
2023/03/15 11:25:39;;;;;;;4.40;2.00;;;11.40;90.00;;;;;;5054783;28;20163;-72
2023/03/15 11:28:05;;;;;;;8.93;2.67;;;11.40;90.10;;;;;;5060144;28;20100;-71
2023/03/15 11:30:31;;;;;;;6.00;2.58;;;11.40;89.50;;;;;;5068972;28;20016;-73
2023/03/15 11:33:06;;;;;;;5.25;2.10;;;11.50;90.10;;;;;;5052205;28;20435;-71
2023/03/15 11:35:37;;;;;;;4.55;2.40;;;11.60;89.60;;;;;;5065721;28;20062;-72
2023/03/15 11:38:11;;;;;;;4.00;2.72;;;11.60;88.80;;;;;;5061623;28;20099;-72
2023/03/15 11:40:41;;;;;;;3.40;2.33;;;11.60;88.80;;;;;;5073075;28;20021;-71
2023/03/15 11:43:33;;;;;;;5.53;2.25;;;11.60;88.70;;;;;;5071286;28;20481;-74
2023/03/15 11:46:09;;;;;;;13.27;2.88;;;11.50;89.60;;;;;;5072477;28;20024;-73
2023/03/15 11:48:43;;;;;;;10.40;2.70;;;11.50;89.70;;;;;;5062708;28;20111;-72
2023/03/15 11:51:12;;;;;;;3.08;2.42;;;11.50;87.30;;;;;;5064855;28;20087;-72
2023/03/15 11:53:43;;;;;;;7.93;3.15;;;11.50;88.90;;;;;;5070999;28;20068;-72
2023/03/15 11:56:45;;;;;;;4.90;2.75;;;11.60;88.10;;;;;;5070528;28;20025;-73
2023/03/15 11:59:12;;;;;;;5.97;2.75;;;11.70;88.20;;;;;;5062591;28;20021;-73
2023/03/15 12:01:57;;;;;;;8.52;2.92;;;11.70;87.90;;;;;;5068588;28;20032;-73
2023/03/15 12:04:31;;;;;;;5.80;3.05;;;11.70;87.80;;;;;;5065883;28;20035;-73
2023/03/15 12:07:25;;;;;;;3.53;2.30;;;11.80;86.60;;;;;;5068056;28;20168;-73
2023/03/15 12:09:54;;;;;;;4.25;1.85;;;11.70;86.60;;;;;;5019769;28;20067;-74
2023/03/15 12:12:25;;;;;;;3.92;1.65;;;11.80;86.20;;;;;;5067308;28;20375;-74
2023/03/15 12:15:01;;;;;;;7.43;1.77;;;11.80;84.40;;;;;;5062117;28;20474;-73
2023/03/15 12:17:26;;;;;;;5.22;2.00;;;11.80;86.70;;;;;;5062989;28;20508;-72
2023/03/15 12:20:13;;;;;;;5.20;2.03;;;11.80;87.60;;;;;;5063489;28;20021;-73
2023/03/15 12:23:11;;;;;;;5.90;2.15;;;11.90;86.00;;;;;;5058824;28;20029;-74
2023/03/15 12:25:57;;;;;;;5.47;2.05;;;11.90;88.10;;;;;;5055888;28;20500;-72
2023/03/15 12:28:34;;;;;;;6.28;1.98;;;11.90;85.70;;;;;;5040896;28;20033;-72
2023/03/15 12:31:03;;;;;;;4.90;1.55;;;11.90;87.30;;;;;;5061355;28;20059;-74
2023/03/15 12:33:31;;;;;;;4.75;1.63;;;11.90;85.40;;;;;;5066088;28;20064;-74
2023/03/15 12:36:14;;;;;;;6.93;1.42;;;12.00;86.90;;;;;;5079330;28;20035;-73
2023/03/15 12:38:51;;;;;;;4.60;1.60;;;12.10;89.20;;;;;;5075055;28;20024;-73
2023/03/15 12:41:41;;;;;;;3.40;1.30;;;12.00;84.50;;;;;;5058169;28;20086;-72
2023/03/15 12:44:30;;;;;;;2.47;1.25;;;12.10;85.20;;;;;;5070775;28;20016;-73
2023/03/15 12:47:00;;;;;;;4.93;1.58;;;12.10;87.70;;;;;;5063752;28;21383;-72
2023/03/15 12:49:28;;;;;;;5.32;1.55;;;12.20;88.30;;;;;;5069126;28;20036;-73
2023/03/15 12:52:14;;;;;;;5.40;1.42;;;12.20;87.20;;;;;;5059686;28;20033;-77
2023/03/15 12:54:57;;;;;;;3.78;1.40;;;12.30;92.00;;;;;;5056180;28;20037;-73
2023/03/15 12:57:29;;;;;;;4.55;1.30;;;12.30;84.80;;;;;;5058746;28;20029;-76
2023/03/15 13:00:05;;;;;;;6.65;1.52;;;12.30;82.90;;;;;;5070238;28;20484;-76
2023/03/15 13:02:34;;;;;;;4.03;1.42;;;12.40;86.80;;;;;;5059147;28;20017;-80